Time;durP1;ratioP1;P1;durP2;ratioP2;P2;SDS_P1;SDS_P2;PMS_P1;PMS_P2;Temp;Humidity;BMP_temperature;BMP_pressure;BME280_temperature;BME280_humidity;BME280_pressure;Samples;Min_cycle;Max_cycle;Signal;HPM_P1;HPM_P2
2021/07/08 00:00:54;;;;;;;4.45;3.30;;;22.40;99.90;;;;;;5034143;28;20029;-68
2021/07/08 00:03:20;;;;;;;3.90;3.20;;;22.40;99.90;;;;;;5042033;28;20033;-67
2021/07/08 00:05:46;;;;;;;3.92;3.03;;;22.60;99.90;;;;;;5051219;28;20029;-68
2021/07/08 00:08:13;;;;;;;4.15;2.65;;;22.70;99.90;;;;;;5046875;28;20086;-67
2021/07/08 00:10:42;;;;;;;4.10;3.05;;;22.60;99.90;;;;;;5042471;28;20498;-67
2021/07/08 00:13:08;;;;;;;3.60;3.05;;;22.70;99.90;;;;;;5033102;28;20044;-67
2021/07/08 00:15:34;;;;;;;3.58;2.97;;;22.60;99.90;;;;;;5034431;28;20045;-66
2021/07/08 00:18:01;;;;;;;3.92;2.95;;;22.80;99.90;;;;;;5033646;28;20033;-66
2021/07/08 00:20:28;;;;;;;3.15;2.85;;;22.80;99.90;;;;;;5038682;28;20100;-66
2021/07/08 00:22:54;;;;;;;2.70;2.50;;;22.60;99.90;;;;;;5030566;28;20041;-66
2021/07/08 00:25:26;;;;;;;5.13;2.78;;;22.70;99.90;;;;;;5048898;28;20095;-67
2021/07/08 00:27:53;;;;;;;3.53;2.40;;;22.70;99.90;;;;;;5038359;28;20040;-67
2021/07/08 00:30:19;;;;;;;3.85;2.60;;;22.70;99.90;;;;;;5037828;28;20037;-67
2021/07/08 00:32:45;;;;;;;4.75;3.05;;;22.70;99.90;;;;;;5030673;28;20038;-67
2021/07/08 00:35:12;;;;;;;4.18;2.55;;;22.80;99.90;;;;;;5032745;28;20034;-67
2021/07/08 00:37:38;;;;;;;4.57;2.40;;;22.80;99.90;;;;;;5032096;28;20132;-67
2021/07/08 00:40:09;;;;;;;6.53;2.72;;;22.70;99.90;;;;;;5030354;28;20227;-67
2021/07/08 00:42:35;;;;;;;3.40;2.63;;;22.80;99.90;;;;;;5039202;28;20041;-67
2021/07/08 00:45:03;;;;;;;3.05;2.33;;;22.90;99.90;;;;;;5032394;28;20045;-67
2021/07/08 00:47:28;;;;;;;2.92;2.72;;;22.80;99.90;;;;;;5032004;28;20041;-67
2021/07/08 00:49:54;;;;;;;3.75;2.60;;;22.90;99.90;;;;;;5027942;28;20955;-65
2021/07/08 00:52:19;;;;;;;2.55;2.00;;;22.90;99.90;;;;;;5033210;28;20084;-67
2021/07/08 00:54:45;;;;;;;2.80;2.60;;;22.90;99.90;;;;;;5055612;28;20075;-67
2021/07/08 00:57:10;;;;;;;3.10;2.22;;;22.90;99.90;;;;;;5032556;28;20044;-67
2021/07/08 00:59:43;;;;;;;3.80;2.53;;;23.10;99.90;;;;;;5023275;28;20087;-67
2021/07/08 01:02:13;;;;;;;3.15;2.53;;;23.10;99.90;;;;;;5046873;28;20151;-68
2021/07/08 01:04:45;;;;;;;2.92;2.40;;;23.20;99.90;;;;;;5045670;28;20033;-67
2021/07/08 01:07:12;;;;;;;4.28;2.30;;;23.20;99.90;;;;;;5047037;28;20041;-68
2021/07/08 01:09:38;;;;;;;4.78;2.17;;;23.30;99.90;;;;;;5032647;28;20049;-68
2021/07/08 01:12:04;;;;;;;2.80;2.30;;;23.40;99.90;;;;;;5033611;28;20080;-68
2021/07/08 01:14:30;;;;;;;5.15;2.47;;;23.50;99.90;;;;;;5024991;28;20456;-68
2021/07/08 01:16:56;;;;;;;4.15;2.78;;;23.50;99.90;;;;;;5028792;28;20091;-67
2021/07/08 01:19:21;;;;;;;4.00;2.78;;;23.60;99.90;;;;;;5031987;28;20033;-68
2021/07/08 01:21:47;;;;;;;4.15;2.80;;;23.60;99.90;;;;;;5041034;28;20425;-68
2021/07/08 01:24:13;;;;;;;4.63;3.13;;;23.60;99.90;;;;;;5033170;28;20087;-68
2021/07/08 01:26:40;;;;;;;3.38;2.47;;;23.70;99.90;;;;;;5029705;28;20043;-67
2021/07/08 01:29:07;;;;;;;5.00;2.75;;;23.80;99.90;;;;;;5036029;28;20022;-67
2021/07/08 01:31:33;;;;;;;3.00;2.40;;;23.80;99.90;;;;;;5029518;28;20049;-68
2021/07/08 01:33:59;;;;;;;5.15;2.58;;;23.90;99.90;;;;;;5034171;28;20053;-67
2021/07/08 01:36:25;;;;;;;3.00;2.50;;;23.90;99.90;;;;;;5038405;28;20045;-67
2021/07/08 01:38:50;;;;;;;3.38;2.40;;;24.00;99.90;;;;;;5052445;28;20033;-68
2021/07/08 01:41:16;;;;;;;2.75;2.50;;;24.00;99.90;;;;;;5044347;28;20515;-68
2021/07/08 01:43:43;;;;;;;5.25;2.78;;;24.00;99.90;;;;;;5040996;28;20046;-68
2021/07/08 01:46:12;;;;;;;4.50;2.65;;;24.00;99.90;;;;;;5029830;28;20025;-68
2021/07/08 01:48:38;;;;;;;2.55;2.33;;;24.00;99.90;;;;;;5036745;28;20057;-68
2021/07/08 01:51:36;;;;;;;4.05;2.30;;;24.00;99.90;;;;;;5028632;28;20118;-68
2021/07/08 01:54:08;;;;;;;3.55;2.60;;;24.10;99.90;;;;;;5011163;28;20033;-68
2021/07/08 01:56:34;;;;;;;4.07;2.25;;;24.10;99.90;;;;;;5026391;28;20044;-68
2021/07/08 01:59:00;;;;;;;5.78;2.75;;;24.10;99.90;;;;;;5031894;28;20037;-67
2021/07/08 02:01:25;;;;;;;3.42;2.03;;;24.20;99.90;;;;;;5029792;28;20036;-68
2021/07/08 02:03:51;;;;;;;3.08;2.08;;;24.30;99.90;;;;;;5038451;28;20060;-68
2021/07/08 02:06:17;;;;;;;2.80;2.38;;;24.30;99.90;;;;;;5039581;28;20086;-68
2021/07/08 02:08:43;;;;;;;3.58;2.67;;;24.30;99.90;;;;;;5032519;28;20502;-68
2021/07/08 02:11:10;;;;;;;3.05;2.65;;;24.40;99.90;;;;;;5033903;28;20123;-68
2021/07/08 02:13:37;;;;;;;2.97;2.63;;;24.40;99.90;;;;;;5030696;28;20120;-68
2021/07/08 02:16:04;;;;;;;4.28;2.15;;;24.40;99.90;;;;;;5030906;28;20053;-68
2021/07/08 02:18:30;;;;;;;3.08;2.03;;;24.40;99.90;;;;;;5026654;28;20436;-68
2021/07/08 02:20:56;;;;;;;2.53;2.15;;;24.50;99.90;;;;;;5039196;28;20045;-68
2021/07/08 02:23:22;;;;;;;3.72;2.13;;;24.50;99.90;;;;;;5029526;28;20046;-68
2021/07/08 02:25:48;;;;;;;3.78;2.60;;;24.50;99.90;;;;;;5036189;28;20048;-68
2021/07/08 02:28:13;;;;;;;4.10;2.50;;;24.50;99.90;;;;;;5040164;28;22743;-68
2021/07/08 02:30:39;;;;;;;4.88;2.70;;;24.50;99.90;;;;;;5046008;28;20048;-68
2021/07/08 02:33:07;;;;;;;5.95;2.50;;;24.50;99.90;;;;;;5035909;28;20124;-68
2021/07/08 02:35:33;;;;;;;2.70;2.42;;;24.60;99.90;;;;;;5044683;28;20434;-68
2021/07/08 02:37:58;;;;;;;3.40;2.88;;;24.50;99.90;;;;;;5039475;28;20029;-68
2021/07/08 02:40:33;;;;;;;2.65;2.45;;;24.50;99.90;;;;;;5038355;28;20063;-65
2021/07/08 02:43:01;;;;;;;5.85;3.13;;;24.50;99.90;;;;;;5032619;28;20509;-68
2021/07/08 02:45:29;;;;;;;4.30;2.88;;;24.60;99.90;;;;;;5030948;28;20045;-68
2021/07/08 02:47:57;;;;;;;3.88;2.75;;;24.50;99.90;;;;;;5035037;28;20049;-68
2021/07/08 02:50:25;;;;;;;4.28;3.88;;;24.60;99.90;;;;;;5030851;28;20403;-68
2021/07/08 02:52:51;;;;;;;3.72;3.42;;;24.60;99.90;;;;;;5031854;28;20105;-68
2021/07/08 02:55:17;;;;;;;4.63;3.58;;;24.60;99.90;;;;;;5036472;28;20033;-68
2021/07/08 02:57:46;;;;;;;4.35;3.67;;;24.50;99.90;;;;;;5032568;28;20037;-68
2021/07/08 03:00:17;;;;;;;6.03;3.58;;;24.60;99.90;;;;;;5028072;28;20036;-68
2021/07/08 03:02:43;;;;;;;4.25;3.50;;;24.60;99.90;;;;;;5039816;28;20143;-68
2021/07/08 03:05:10;;;;;;;4.55;3.58;;;24.60;99.90;;;;;;5044087;28;20497;-68
2021/07/08 03:07:37;;;;;;;5.70;3.38;;;24.70;99.90;;;;;;5034536;28;20455;-67
2021/07/08 03:10:04;;;;;;;4.55;4.05;;;24.70;99.90;;;;;;5051428;28;20145;-67
2021/07/08 03:12:30;;;;;;;4.78;3.80;;;24.60;99.90;;;;;;5024979;28;20051;-67
2021/07/08 03:14:55;;;;;;;3.60;3.30;;;24.50;99.90;;;;;;5026894;28;20045;-67
2021/07/08 03:17:21;;;;;;;3.85;3.45;;;24.60;99.90;;;;;;5037508;28;20498;-68
2021/07/08 03:19:46;;;;;;;6.45;3.63;;;24.60;99.90;;;;;;5026061;28;20044;-68
2021/07/08 03:22:12;;;;;;;4.47;3.85;;;24.50;99.90;;;;;;5038196;28;20440;-68
2021/07/08 03:24:38;;;;;;;4.93;3.58;;;24.50;99.90;;;;;;5027615;28;20056;-68
2021/07/08 03:27:04;;;;;;;3.63;3.33;;;24.50;99.90;;;;;;5028358;28;20060;-68
2021/07/08 03:29:29;;;;;;;3.70;3.40;;;24.60;99.90;;;;;;5034331;28;20098;-67
2021/07/08 03:31:55;;;;;;;5.70;4.00;;;24.50;99.90;;;;;;5030712;28;20037;-67
2021/07/08 03:34:20;;;;;;;4.88;4.03;;;24.50;99.70;;;;;;5028522;28;20482;-68
2021/07/08 03:36:46;;;;;;;4.18;3.78;;;24.60;99.70;;;;;;5026886;28;20592;-68
2021/07/08 03:39:12;;;;;;;4.55;3.67;;;24.60;99.90;;;;;;5031491;28;20399;-68
2021/07/08 03:41:37;;;;;;;5.10;3.65;;;24.70;99.90;;;;;;5033631;28;20107;-68
2021/07/08 03:44:03;;;;;;;4.22;3.83;;;24.70;99.90;;;;;;5029183;28;20052;-68
2021/07/08 03:46:29;;;;;;;4.13;3.75;;;24.70;99.90;;;;;;5026001;28;20033;-68
2021/07/08 03:48:54;;;;;;;4.45;3.97;;;24.60;99.90;;;;;;5035347;28;20052;-66
2021/07/08 03:51:20;;;;;;;5.90;4.10;;;24.70;99.90;;;;;;5032530;28;20058;-68
2021/07/08 03:53:45;;;;;;;4.50;4.10;;;24.70;99.90;;;;;;5030671;28;20060;-68
2021/07/08 03:56:12;;;;;;;3.63;3.25;;;24.70;99.90;;;;;;5023747;28;20049;-68
2021/07/08 03:58:39;;;;;;;5.72;4.50;;;24.70;99.90;;;;;;5026971;28;20472;-68
2021/07/08 04:01:05;;;;;;;4.68;4.28;;;24.70;99.00;;;;;;5021566;28;20037;-67
2021/07/08 04:03:30;;;;;;;5.95;3.92;;;24.70;99.90;;;;;;5038712;28;20108;-67
2021/07/08 04:05:56;;;;;;;6.28;4.05;;;24.70;99.70;;;;;;5044066;28;20029;-66
2021/07/08 04:08:21;;;;;;;5.90;4.20;;;24.70;99.90;;;;;;5049041;28;20119;-67
2021/07/08 04:10:47;;;;;;;5.93;4.47;;;24.70;99.90;;;;;;5030694;28;20064;-68
2021/07/08 04:13:16;;;;;;;5.13;4.47;;;24.70;99.90;;;;;;5028196;28;20178;-68
2021/07/08 04:15:43;;;;;;;4.63;4.00;;;24.80;99.70;;;;;;5029712;28;20079;-67
2021/07/08 04:18:10;;;;;;;5.43;4.32;;;24.80;99.90;;;;;;5025715;28;20069;-67
2021/07/08 04:20:35;;;;;;;5.18;4.15;;;24.80;99.90;;;;;;5034046;28;20049;-69
2021/07/08 04:23:02;;;;;;;6.63;4.32;;;24.80;99.90;;;;;;5029973;28;20033;-67
2021/07/08 04:25:27;;;;;;;5.47;4.40;;;24.90;99.50;;;;;;5036313;28;20069;-68
2021/07/08 04:27:53;;;;;;;5.22;4.50;;;24.80;99.90;;;;;;5019079;28;20077;-68
2021/07/08 04:30:23;;;;;;;5.40;4.28;;;24.80;99.50;;;;;;5037411;28;20076;-68
2021/07/08 04:32:50;;;;;;;6.43;4.15;;;24.80;99.70;;;;;;5029066;28;20098;-69
2021/07/08 04:35:21;;;;;;;4.63;4.22;;;24.80;99.90;;;;;;5043777;28;20033;-68
2021/07/08 04:37:48;;;;;;;6.32;4.35;;;24.80;99.90;;;;;;5034488;28;20033;-68
2021/07/08 04:40:19;;;;;;;4.45;4.15;;;24.80;99.80;;;;;;5026451;28;20121;-68
2021/07/08 04:42:48;;;;;;;6.63;4.68;;;24.80;99.00;;;;;;5037434;28;20041;-68
2021/07/08 04:45:14;;;;;;;4.68;4.25;;;24.80;99.80;;;;;;5048023;28;22334;-68
2021/07/08 04:47:41;;;;;;;4.43;3.78;;;24.80;99.80;;;;;;5034683;28;20538;-69
2021/07/08 04:50:09;;;;;;;8.32;4.60;;;24.80;99.80;;;;;;5044542;28;20033;-68
2021/07/08 04:52:36;;;;;;;5.03;4.40;;;24.90;99.60;;;;;;5031418;28;20068;-68
2021/07/08 04:55:03;;;;;;;5.32;4.68;;;24.80;99.10;;;;;;5045016;28;20029;-68
2021/07/08 04:57:29;;;;;;;5.60;4.70;;;24.90;99.40;;;;;;5035500;28;20411;-68
2021/07/08 04:59:55;;;;;;;6.30;4.35;;;24.60;99.20;;;;;;5030702;28;20037;-68
2021/07/08 05:02:20;;;;;;;5.03;4.55;;;24.90;99.70;;;;;;5035074;28;20033;-68
2021/07/08 05:04:46;;;;;;;5.75;4.38;;;24.90;99.20;;;;;;5040401;28;20037;-68
2021/07/08 05:07:12;;;;;;;5.35;4.72;;;24.90;98.80;;;;;;5029090;28;20487;-68
2021/07/08 05:09:38;;;;;;;7.70;4.72;;;24.80;98.80;;;;;;5030465;28;20037;-68
2021/07/08 05:12:05;;;;;;;7.00;4.68;;;24.80;99.20;;;;;;5044056;28;20045;-68
2021/07/08 05:14:30;;;;;;;7.93;5.32;;;24.90;99.30;;;;;;5038796;28;20064;-68
2021/07/08 05:16:56;;;;;;;9.30;5.63;;;24.90;99.00;;;;;;5043857;28;20045;-67
2021/07/08 05:19:22;;;;;;;5.53;4.88;;;25.00;98.80;;;;;;5034643;28;20056;-68
2021/07/08 05:21:50;;;;;;;6.07;5.40;;;25.00;98.60;;;;;;5046512;28;20037;-68
2021/07/08 05:24:21;;;;;;;7.95;5.70;;;25.00;99.50;;;;;;5032911;28;20123;-68
2021/07/08 05:26:47;;;;;;;6.68;5.50;;;25.00;99.80;;;;;;5041993;28;20567;-69
2021/07/08 05:29:13;;;;;;;7.03;6.18;;;25.00;99.80;;;;;;5025094;28;21732;-68
2021/07/08 05:31:39;;;;;;;6.78;6.07;;;24.90;99.00;;;;;;5026873;28;20065;-68
2021/07/08 05:34:04;;;;;;;9.43;6.28;;;24.90;99.10;;;;;;5036744;28;20094;-68
2021/07/08 05:36:30;;;;;;;8.27;6.35;;;24.80;99.40;;;;;;5030238;28;20045;-68
2021/07/08 05:38:56;;;;;;;7.95;6.43;;;24.80;98.90;;;;;;5032129;28;20402;-63
2021/07/08 05:41:21;;;;;;;8.88;6.50;;;25.00;99.00;;;;;;5042314;28;20132;-68
2021/07/08 05:43:47;;;;;;;7.88;5.95;;;25.10;98.80;;;;;;5034388;28;20052;-69
2021/07/08 05:46:13;;;;;;;9.18;6.45;;;25.20;98.70;;;;;;5038531;28;20033;-69
2021/07/08 05:48:39;;;;;;;8.15;7.32;;;25.30;99.00;;;;;;5041459;28;20037;-70
2021/07/08 05:51:04;;;;;;;9.32;7.38;;;25.30;98.50;;;;;;5038015;28;20037;-68
2021/07/08 05:53:30;;;;;;;8.27;7.38;;;25.20;98.60;;;;;;5048601;28;20080;-68
2021/07/08 05:55:55;;;;;;;8.50;7.40;;;25.20;98.70;;;;;;5047833;28;20049;-68
2021/07/08 05:58:21;;;;;;;8.75;7.85;;;25.20;98.10;;;;;;5036669;28;20052;-67
2021/07/08 06:00:48;;;;;;;9.13;8.15;;;25.20;97.90;;;;;;5031708;28;20086;-68
2021/07/08 06:03:15;;;;;;;9.10;7.00;;;25.40;97.40;;;;;;5042496;28;20041;-68
2021/07/08 06:05:40;;;;;;;9.90;7.80;;;25.40;97.20;;;;;;5024767;28;20094;-68
2021/07/08 06:08:06;;;;;;;9.25;7.20;;;25.50;96.70;;;;;;5035442;28;20033;-67
2021/07/08 06:10:31;;;;;;;9.40;7.32;;;25.60;96.80;;;;;;5022591;28;20037;-68
2021/07/08 06:12:57;;;;;;;8.98;8.05;;;25.60;96.70;;;;;;5023880;28;20041;-67
2021/07/08 06:15:23;;;;;;;8.38;6.47;;;25.60;96.30;;;;;;5029018;28;20037;-67
2021/07/08 06:17:48;;;;;;;12.38;7.45;;;25.50;95.60;;;;;;5030180;28;20170;-68
2021/07/08 06:20:14;;;;;;;6.88;6.00;;;25.60;96.60;;;;;;5043744;28;20216;-68
2021/07/08 06:22:40;;;;;;;8.50;7.03;;;25.60;96.20;;;;;;5028766;28;20041;-68
2021/07/08 06:25:06;;;;;;;10.30;7.90;;;25.70;96.30;;;;;;5043404;28;20041;-68
2021/07/08 06:27:32;;;;;;;10.45;7.47;;;25.70;95.40;;;;;;5036646;28;20128;-68
2021/07/08 06:29:58;;;;;;;8.48;7.50;;;25.60;95.00;;;;;;5047772;28;20171;-68
2021/07/08 06:32:23;;;;;;;10.82;7.10;;;25.60;95.10;;;;;;5024388;28;20094;-68
2021/07/08 06:34:49;;;;;;;10.18;7.75;;;25.70;95.70;;;;;;5034003;28;20034;-68
2021/07/08 06:37:16;;;;;;;10.68;7.97;;;25.70;95.40;;;;;;5032890;28;20186;-68
2021/07/08 06:39:43;;;;;;;10.80;9.13;;;25.80;95.50;;;;;;5035117;28;20026;-68
2021/07/08 06:42:08;;;;;;;10.90;8.45;;;25.80;95.20;;;;;;5023404;28;20060;-68
2021/07/08 06:44:34;;;;;;;9.52;7.97;;;25.70;95.40;;;;;;5028868;28;20065;-68
2021/07/08 06:47:02;;;;;;;12.88;8.00;;;25.80;95.60;;;;;;5043770;28;20040;-68
2021/07/08 06:49:28;;;;;;;10.70;8.70;;;25.80;95.40;;;;;;5046587;28;21645;-67
2021/07/08 06:51:54;;;;;;;10.38;9.27;;;25.90;95.10;;;;;;5032583;28;20183;-68
2021/07/08 06:54:19;;;;;;;16.02;9.20;;;25.80;95.20;;;;;;5030696;28;20505;-68
2021/07/08 06:56:45;;;;;;;12.20;9.55;;;25.80;95.10;;;;;;5040798;28;20045;-68
2021/07/08 06:59:11;;;;;;;13.27;9.90;;;25.80;95.10;;;;;;5028866;28;20091;-68
2021/07/08 07:01:37;;;;;;;11.10;8.77;;;25.90;95.30;;;;;;5030998;28;20033;-68
2021/07/08 07:04:02;;;;;;;12.45;9.35;;;26.10;95.00;;;;;;5034097;28;20045;-68
2021/07/08 07:06:28;;;;;;;13.60;9.35;;;26.10;94.70;;;;;;5033135;28;20049;-68
2021/07/08 07:08:53;;;;;;;10.82;8.57;;;26.20;94.80;;;;;;5042880;28;20041;-67
2021/07/08 07:11:19;;;;;;;11.43;10.07;;;26.30;94.50;;;;;;5048982;28;20467;-67
2021/07/08 07:13:45;;;;;;;12.50;11.15;;;26.40;94.60;;;;;;5030770;28;20044;-67
2021/07/08 07:16:10;;;;;;;12.18;10.30;;;26.30;95.20;;;;;;5031424;28;20495;-67
2021/07/08 07:18:39;;;;;;;13.18;10.35;;;26.30;94.90;;;;;;5034879;28;20061;-67
2021/07/08 07:21:08;;;;;;;11.30;9.30;;;26.40;95.00;;;;;;5045919;28;20131;-66
2021/07/08 07:23:34;;;;;;;15.18;10.70;;;26.30;95.20;;;;;;5044674;28;20102;-67
2021/07/08 07:25:59;;;;;;;11.10;9.77;;;26.40;95.20;;;;;;5038165;28;20037;-67
2021/07/08 07:28:25;;;;;;;10.95;9.70;;;26.30;95.10;;;;;;5011304;28;20037;-68
2021/07/08 07:30:51;;;;;;;13.63;11.40;;;26.30;95.10;;;;;;5035866;28;20514;-67
2021/07/08 07:33:16;;;;;;;17.83;10.57;;;26.30;95.10;;;;;;5028640;28;20057;-67
2021/07/08 07:35:42;;;;;;;10.60;9.10;;;26.30;94.80;;;;;;5027841;28;20112;-68
2021/07/08 07:38:11;;;;;;;9.80;8.65;;;26.40;94.70;;;;;;5030303;28;20140;-68
2021/07/08 07:40:40;;;;;;;13.70;9.68;;;26.60;94.20;;;;;;5034120;28;20115;-67
2021/07/08 07:43:06;;;;;;;11.48;10.18;;;26.70;93.90;;;;;;5045322;28;20386;-68
2021/07/08 07:45:32;;;;;;;12.88;10.35;;;26.60;94.40;;;;;;5044088;28;20037;-67
2021/07/08 07:47:58;;;;;;;14.45;10.60;;;26.60;94.10;;;;;;5045368;28;20041;-67
2021/07/08 07:50:26;;;;;;;13.52;11.20;;;26.50;93.90;;;;;;5037098;28;20080;-68
2021/07/08 07:52:55;;;;;;;11.50;9.90;;;26.40;94.50;;;;;;5047969;28;20045;-68
2021/07/08 07:55:21;;;;;;;17.10;10.30;;;26.50;94.00;;;;;;5026445;28;20075;-68
2021/07/08 07:57:47;;;;;;;13.82;9.85;;;26.50;94.20;;;;;;5034006;28;20100;-68
2021/07/08 08:00:13;;;;;;;13.30;10.45;;;26.50;94.00;;;;;;5026786;28;20041;-68
2021/07/08 08:02:39;;;;;;;13.13;10.35;;;26.50;94.40;;;;;;5030721;28;20125;-68
2021/07/08 08:10:16;;;;;;;13.15;10.95;;;26.50;94.40;;;;;;5030685;28;20453;-68
2021/07/08 08:12:42;;;;;;;12.68;10.93;;;26.60;94.20;;;;;;5057330;28;20048;-68
2021/07/08 08:15:09;;;;;;;14.25;11.40;;;26.50;94.60;;;;;;5035479;28;20423;-68
2021/07/08 08:17:37;;;;;;;13.93;10.68;;;26.60;94.70;;;;;;5031588;28;20045;-68
2021/07/08 08:20:04;;;;;;;11.85;9.65;;;26.60;94.50;;;;;;5050118;28;20495;-68
2021/07/08 08:22:30;;;;;;;12.02;10.75;;;26.60;94.00;;;;;;5048689;28;20471;-68
2021/07/08 08:24:55;;;;;;;12.77;11.43;;;26.60;93.90;;;;;;5049435;28;20063;-69
2021/07/08 08:27:21;;;;;;;13.85;11.63;;;26.40;94.20;;;;;;5031194;28;20042;-69
2021/07/08 08:29:48;;;;;;;14.25;11.35;;;26.40;94.40;;;;;;5047842;28;20074;-68
2021/07/08 08:32:14;;;;;;;12.18;11.02;;;26.50;94.20;;;;;;5038814;28;20439;-68
2021/07/08 08:34:39;;;;;;;14.50;11.93;;;26.60;93.90;;;;;;5039025;28;20033;-68
2021/07/08 08:37:05;;;;;;;10.57;9.57;;;26.80;93.70;;;;;;5024979;28;20041;-68
2021/07/08 08:39:31;;;;;;;12.48;10.68;;;27.00;93.00;;;;;;5030482;28;20498;-68
2021/07/08 08:41:56;;;;;;;14.35;11.80;;;27.10;92.80;;;;;;5031089;28;20515;-63
2021/07/08 08:44:22;;;;;;;13.45;9.90;;;27.10;92.20;;;;;;5031015;28;20042;-68
2021/07/08 08:46:50;;;;;;;12.45;10.02;;;27.00;92.50;;;;;;5039346;28;20045;-68
2021/07/08 08:49:16;;;;;;;13.30;10.25;;;27.10;92.60;;;;;;5047936;28;22810;-68
2021/07/08 08:51:43;;;;;;;14.27;9.70;;;27.10;92.00;;;;;;5037151;28;20503;-68
2021/07/08 08:54:09;;;;;;;14.13;10.20;;;27.20;92.00;;;;;;5028500;28;20041;-68
2021/07/08 08:56:34;;;;;;;13.82;11.50;;;27.20;91.20;;;;;;5034515;28;20474;-68
2021/07/08 08:59:00;;;;;;;13.95;11.02;;;27.20;91.30;;;;;;5058890;28;20116;-68
2021/07/08 09:01:26;;;;;;;13.80;10.75;;;27.20;91.20;;;;;;5051629;28;20044;-68
2021/07/08 09:03:51;;;;;;;13.65;11.90;;;27.40;90.70;;;;;;5016543;28;20131;-68
2021/07/08 09:06:17;;;;;;;15.57;10.25;;;27.30;90.60;;;;;;5029825;28;20048;-68
2021/07/08 09:08:47;;;;;;;12.60;11.07;;;27.40;90.80;;;;;;5035189;28;20087;-68
2021/07/08 09:11:24;;;;;;;13.07;11.10;;;27.60;90.60;;;;;;5034532;28;20041;-67
2021/07/08 09:14:01;;;;;;;12.80;9.32;;;27.60;89.30;;;;;;5027040;28;20045;-66
2021/07/08 09:16:46;;;;;;;16.25;10.27;;;28.00;88.80;;;;;;5047608;28;20467;-59
2021/07/08 09:19:18;;;;;;;13.10;10.93;;;28.10;88.80;;;;;;5024771;28;20034;-67
2021/07/08 09:21:51;;;;;;;12.18;10.93;;;28.30;87.00;;;;;;5052395;28;20048;-68
2021/07/08 09:24:25;;;;;;;15.88;13.25;;;28.30;86.80;;;;;;5032730;28;20444;-69
2021/07/08 09:26:54;;;;;;;16.90;12.32;;;28.60;86.80;;;;;;5050671;28;20115;-69
2021/07/08 09:29:21;;;;;;;13.15;11.02;;;28.40;86.90;;;;;;5042864;28;20059;-69
2021/07/08 09:32:00;;;;;;;15.27;11.02;;;28.40;85.50;;;;;;5046628;28;20041;-68
2021/07/08 09:34:30;;;;;;;14.35;10.23;;;28.50;84.00;;;;;;5032482;28;20037;-70
2021/07/08 09:37:09;;;;;;;12.18;9.20;;;28.80;84.00;;;;;;5035434;28;20065;-69
2021/07/08 09:39:40;;;;;;;10.63;8.00;;;29.10;79.00;;;;;;5019336;28;20147;-69
2021/07/08 09:42:07;;;;;;;10.70;8.45;;;29.00;79.90;;;;;;5053402;28;20395;-68
2021/07/08 09:44:33;;;;;;;8.60;7.05;;;29.10;79.70;;;;;;5044633;28;20033;-68
2021/07/08 09:46:59;;;;;;;10.18;7.45;;;29.10;78.50;;;;;;5047893;28;20037;-69
2021/07/08 09:49:26;;;;;;;6.82;6.15;;;29.20;77.90;;;;;;5045587;28;20097;-69
2021/07/08 09:51:53;;;;;;;5.65;4.07;;;29.40;74.40;;;;;;5031899;28;20034;-69
2021/07/08 09:55:04;;;;;;;8.48;6.70;;;29.60;72.90;;;;;;5018717;28;20394;-69
2021/07/08 09:57:41;;;;;;;6.32;5.47;;;29.70;69.60;;;;;;4973639;28;20038;-68
2021/07/08 10:00:28;;;;;;;7.00;5.47;;;29.60;70.80;;;;;;5037843;28;20041;-69
2021/07/08 10:02:55;;;;;;;6.85;5.72;;;29.50;69.60;;;;;;5023235;28;20064;-69
2021/07/08 10:05:24;;;;;;;7.85;6.68;;;29.60;68.40;;;;;;5038413;28;20037;-70
2021/07/08 10:07:50;;;;;;;6.22;4.40;;;29.40;69.90;;;;;;5033579;28;20103;-70
2021/07/08 10:10:16;;;;;;;4.95;4.50;;;29.40;70.20;;;;;;5024910;28;20516;-70
2021/07/08 10:12:46;;;;;;;4.68;4.28;;;29.30;69.00;;;;;;5047030;28;20111;-70
2021/07/08 10:15:12;;;;;;;8.40;5.47;;;29.40;69.00;;;;;;5026275;28;20072;-69
2021/07/08 10:17:39;;;;;;;6.97;6.28;;;29.50;69.10;;;;;;5048369;28;20341;-69
2021/07/08 10:20:09;;;;;;;6.30;5.55;;;29.70;69.70;;;;;;5040843;28;20049;-70
2021/07/08 10:22:34;;;;;;;11.55;6.38;;;29.60;69.60;;;;;;5041066;28;20052;-69
2021/07/08 10:25:00;;;;;;;6.18;5.10;;;29.50;69.30;;;;;;5052657;28;20066;-69
2021/07/08 10:27:28;;;;;;;11.98;7.47;;;29.50;69.80;;;;;;5041717;28;20056;-70
2021/07/08 10:29:55;;;;;;;10.10;6.40;;;29.50;69.80;;;;;;5043239;28;20037;-69
2021/07/08 10:32:21;;;;;;;8.85;7.93;;;29.60;70.30;;;;;;5057253;28;20057;-69
2021/07/08 10:34:48;;;;;;;6.63;5.88;;;29.70;69.60;;;;;;5011764;28;20102;-69
2021/07/08 10:37:40;;;;;;;9.05;7.15;;;29.90;68.60;;;;;;5023225;28;20094;-69
2021/07/08 10:40:24;;;;;;;9.85;7.25;;;30.10;66.20;;;;;;4986144;28;20040;-69
2021/07/08 10:42:50;;;;;;;10.45;7.20;;;30.30;66.10;;;;;;5041013;28;20053;-70
2021/07/08 10:45:21;;;;;;;7.43;6.60;;;30.40;66.30;;;;;;5028051;28;20475;-69
2021/07/08 10:47:51;;;;;;;6.70;5.93;;;30.50;63.90;;;;;;5031895;28;20049;-70
2021/07/08 10:50:55;;;;;;;9.45;5.65;;;30.80;63.90;;;;;;5029865;28;21059;-70
2021/07/08 10:53:45;;;;;;;6.40;5.55;;;31.00;60.10;;;;;;5022200;28;20112;-70
2021/07/08 10:56:19;;;;;;;5.97;5.47;;;31.30;60.30;;;;;;5012529;28;20053;-70
2021/07/08 10:58:51;;;;;;;6.35;5.75;;;31.50;60.00;;;;;;5028896;28;20435;-70
2021/07/08 11:01:29;;;;;;;8.23;5.55;;;31.90;57.30;;;;;;5039303;28;20045;-70
2021/07/08 11:04:03;;;;;;;7.00;6.40;;;33.00;54.20;;;;;;5034594;28;20046;-70
2021/07/08 11:06:30;;;;;;;6.65;4.38;;;34.70;51.70;;;;;;5034077;28;20056;-70
2021/07/08 11:09:04;;;;;;;8.65;5.80;;;35.90;48.90;;;;;;5041966;28;20035;-71
2021/07/08 11:11:29;;;;;;;5.93;5.35;;;37.10;45.50;;;;;;5026791;28;20041;-70
2021/07/08 11:14:20;;;;;;;7.15;6.25;;;37.80;43.30;;;;;;5037503;28;20036;-70
2021/07/08 11:17:01;;;;;;;7.63;6.40;;;38.70;42.30;;;;;;5016141;28;20083;-70
2021/07/08 11:19:27;;;;;;;7.00;5.38;;;39.10;41.90;;;;;;5019862;28;20507;-63
2021/07/08 11:21:57;;;;;;;9.80;6.90;;;37.50;41.00;;;;;;5042426;28;20095;-70
2021/07/08 11:24:24;;;;;;;6.57;5.20;;;35.80;42.10;;;;;;5030544;28;20132;-70
2021/07/08 11:26:53;;;;;;;5.10;4.60;;;34.70;45.10;;;;;;5022990;28;20033;-70
2021/07/08 11:29:35;;;;;;;5.80;5.25;;;34.40;44.50;;;;;;5027203;28;20048;-70
2021/07/08 11:32:20;;;;;;;5.10;4.60;;;34.70;43.70;;;;;;5038582;28;20489;-70
2021/07/08 11:35:13;;;;;;;4.97;4.60;;;34.60;44.50;;;;;;5022067;28;20030;-70
2021/07/08 11:37:40;;;;;;;7.05;5.38;;;35.10;43.40;;;;;;5016809;28;20029;-69
2021/07/08 11:40:14;;;;;;;6.72;5.43;;;35.10;44.90;;;;;;5040772;28;20041;-71
2021/07/08 11:42:42;;;;;;;10.23;6.75;;;34.60;44.30;;;;;;5044076;28;20033;-70
2021/07/08 11:45:11;;;;;;;5.10;4.60;;;34.60;44.00;;;;;;5044286;28;20091;-70
2021/07/08 11:47:45;;;;;;;5.90;5.13;;;35.10;43.70;;;;;;5050823;28;20041;-70
2021/07/08 11:50:26;;;;;;;6.88;5.60;;;34.80;43.70;;;;;;5038297;28;20039;-71
2021/07/08 11:53:09;;;;;;;6.25;4.90;;;35.00;44.10;;;;;;5042890;28;20391;-71
2021/07/08 11:55:38;;;;;;;7.20;5.50;;;35.00;43.80;;;;;;5014697;28;20041;-71
2021/07/08 11:58:04;;;;;;;5.97;5.38;;;35.60;43.80;;;;;;5041967;28;20040;-70
2021/07/08 12:00:46;;;;;;;5.15;4.75;;;36.00;42.80;;;;;;5043631;28;20033;-70
2021/07/08 12:03:24;;;;;;;8.15;6.00;;;36.00;42.10;;;;;;5039770;28;20131;-71
2021/07/08 12:05:56;;;;;;;7.07;5.03;;;35.60;42.00;;;;;;5033198;28;20127;-70
2021/07/08 12:08:27;;;;;;;6.00;4.40;;;35.10;43.50;;;;;;5025379;28;20397;-71
2021/07/08 12:11:07;;;;;;;6.38;5.35;;;34.60;43.90;;;;;;5029045;28;20534;-71
2021/07/08 12:13:36;;;;;;;5.30;4.75;;;34.00;45.10;;;;;;5018823;28;20045;-68
2021/07/08 12:16:07;;;;;;;5.82;5.35;;;33.60;46.80;;;;;;5033494;28;20087;-69
2021/07/08 12:18:44;;;;;;;7.63;4.75;;;33.20;46.80;;;;;;5030452;28;20072;-69
2021/07/08 12:21:31;;;;;;;5.40;5.00;;;32.80;47.30;;;;;;5039098;28;20036;-70
2021/07/08 12:23:59;;;;;;;4.65;4.25;;;32.60;46.50;;;;;;5037073;28;20033;-70
2021/07/08 12:26:32;;;;;;;4.10;3.78;;;32.50;47.30;;;;;;5031822;28;20037;-70
2021/07/08 12:29:19;;;;;;;4.65;4.25;;;32.20;47.10;;;;;;5015161;28;20038;-70
2021/07/08 12:32:01;;;;;;;5.00;4.60;;;32.00;48.80;;;;;;5009271;28;20048;-70
2021/07/08 12:34:49;;;;;;;5.65;5.15;;;31.80;49.90;;;;;;5025378;28;20505;-69
2021/07/08 12:37:20;;;;;;;5.13;4.60;;;31.50;50.40;;;;;;5005810;28;20064;-69
2021/07/08 12:40:06;;;;;;;6.60;4.63;;;31.20;50.30;;;;;;5025903;28;20044;-69
2021/07/08 12:42:36;;;;;;;7.82;4.53;;;31.20;49.80;;;;;;5023161;28;20360;-69
2021/07/08 12:45:14;;;;;;;5.65;3.50;;;31.00;50.30;;;;;;5033880;28;20037;-70
2021/07/08 12:47:42;;;;;;;4.05;3.75;;;30.90;50.90;;;;;;5034094;28;20045;-70
2021/07/08 12:50:10;;;;;;;5.05;3.75;;;30.90;51.40;;;;;;5045512;28;20033;-70
2021/07/08 12:52:37;;;;;;;4.07;3.80;;;30.80;51.00;;;;;;5031551;28;20111;-70
2021/07/08 12:55:07;;;;;;;5.95;3.72;;;30.80;51.00;;;;;;5029388;28;20510;-70